sensor_id;sensor_type;location;lat;lon;timestamp;temperature;humidity
3794;DHT22;1912;51.358;12.282;2023-06-14T03:46:19;11.90;1.00
3794;DHT22;1912;51.358;12.282;2023-06-14T03:48:45;12.00;1.00
3794;DHT22;1912;51.358;12.282;2023-06-14T03:51:12;12.10;1.00
3794;DHT22;1912;51.358;12.282;2023-06-14T03:53:37;12.10;1.00
3794;DHT22;1912;51.358;12.282;2023-06-14T03:56:03;12.10;1.00
3794;DHT22;1912;51.358;12.282;2023-06-14T03:58:29;12.10;1.00
3794;DHT22;1912;51.358;12.282;2023-06-14T04:00:54;12.10;1.00
3794;DHT22;1912;51.358;12.282;2023-06-14T04:03:20;12.10;1.00
3794;DHT22;1912;51.358;12.282;2023-06-14T04:05:54;12.10;1.00
3794;DHT22;1912;51.358;12.282;2023-06-14T04:08:22;12.20;1.00
3794;DHT22;1912;51.358;12.282;2023-06-14T04:10:47;12.20;1.00
3794;DHT22;1912;51.358;12.282;2023-06-14T04:13:13;12.20;1.00
3794;DHT22;1912;51.358;12.282;2023-06-14T04:15:39;12.30;1.00
3794;DHT22;1912;51.358;12.282;2023-06-14T04:18:08;12.40;1.00
3794;DHT22;1912;51.358;12.282;2023-06-14T04:20:33;12.40;1.00
3794;DHT22;1912;51.358;12.282;2023-06-14T04:23:14;12.40;1.00
3794;DHT22;1912;51.358;12.282;2023-06-14T04:25:43;12.50;1.00
3794;DHT22;1912;51.358;12.282;2023-06-14T04:28:11;12.50;1.00
3794;DHT22;1912;51.358;12.282;2023-06-14T04:30:37;12.60;1.00
3794;DHT22;1912;51.358;12.282;2023-06-14T04:33:04;12.60;1.00
3794;DHT22;1912;51.358;12.282;2023-06-14T04:35:31;12.70;1.00
3794;DHT22;1912;51.358;12.282;2023-06-14T04:37:58;12.70;1.00
3794;DHT22;1912;51.358;12.282;2023-06-14T04:40:24;12.80;1.00
3794;DHT22;1912;51.358;12.282;2023-06-14T04:42:50;12.80;1.00
3794;DHT22;1912;51.358;12.282;2023-06-14T04:45:16;12.90;1.00
3794;DHT22;1912;51.358;12.282;2023-06-14T04:47:42;12.90;1.00
3794;DHT22;1912;51.358;12.282;2023-06-14T04:50:10;13.00;1.00
3794;DHT22;1912;51.358;12.282;2023-06-14T04:52:36;13.10;1.00
3794;DHT22;1912;51.358;12.282;2023-06-14T04:55:03;13.10;1.00
3794;DHT22;1912;51.358;12.282;2023-06-14T04:57:28;13.10;1.00
3794;DHT22;1912;51.358;12.282;2023-06-14T04:59:54;13.10;1.00
3794;DHT22;1912;51.358;12.282;2023-06-14T05:02:24;13.10;1.00
3794;DHT22;1912;51.358;12.282;2023-06-14T05:04:50;13.20;1.00
3794;DHT22;1912;51.358;12.282;2023-06-14T05:07:16;13.30;1.00
3794;DHT22;1912;51.358;12.282;2023-06-14T05:09:42;13.40;1.00
3794;DHT22;1912;51.358;12.282;2023-06-14T05:12:08;13.50;1.00
3794;DHT22;1912;51.358;12.282;2023-06-14T05:14:35;13.60;1.00
3794;DHT22;1912;51.358;12.282;2023-06-14T05:17:01;13.60;1.00
3794;DHT22;1912;51.358;12.282;2023-06-14T05:19:27;13.70;1.00
3794;DHT22;1912;51.358;12.282;2023-06-14T05:21:54;13.80;1.00
3794;DHT22;1912;51.358;12.282;2023-06-14T05:24:19;14.00;1.00
3794;DHT22;1912;51.358;12.282;2023-06-14T05:26:46;14.00;1.00
3794;DHT22;1912;51.358;12.282;2023-06-14T05:29:12;14.10;1.00
3794;DHT22;1912;51.358;12.282;2023-06-14T05:31:38;14.20;1.00
3794;DHT22;1912;51.358;12.282;2023-06-14T05:34:04;14.30;1.00
3794;DHT22;1912;51.358;12.282;2023-06-14T05:36:30;14.40;1.00
3794;DHT22;1912;51.358;12.282;2023-06-14T05:38:55;14.60;1.00
3794;DHT22;1912;51.358;12.282;2023-06-14T05:41:27;15.10;1.00
3794;DHT22;1912;51.358;12.282;2023-06-14T05:43:55;15.70;1.00
3794;DHT22;1912;51.358;12.282;2023-06-14T05:46:21;16.30;1.00
3794;DHT22;1912;51.358;12.282;2023-06-14T05:48:50;16.80;1.00
3794;DHT22;1912;51.358;12.282;2023-06-14T05:51:19;17.00;1.00
3794;DHT22;1912;51.358;12.282;2023-06-14T05:53:45;16.70;1.00
3794;DHT22;1912;51.358;12.282;2023-06-14T05:56:12;17.00;1.00
3794;DHT22;1912;51.358;12.282;2023-06-14T05:58:38;17.20;1.00
3794;DHT22;1912;51.358;12.282;2023-06-14T06:01:04;17.10;1.00
3794;DHT22;1912;51.358;12.282;2023-06-14T06:03:29;17.40;1.00
3794;DHT22;1912;51.358;12.282;2023-06-14T06:05:55;17.70;1.00
3794;DHT22;1912;51.358;12.282;2023-06-14T06:08:21;17.60;1.00
3794;DHT22;1912;51.358;12.282;2023-06-14T06:10:47;17.50;1.00
3794;DHT22;1912;51.358;12.282;2023-06-14T06:13:12;17.60;1.00
3794;DHT22;1912;51.358;12.282;2023-06-14T06:15:38;17.50;1.00
3794;DHT22;1912;51.358;12.282;2023-06-14T06:18:04;17.60;1.00
3794;DHT22;1912;51.358;12.282;2023-06-14T06:20:29;17.80;1.00
3794;DHT22;1912;51.358;12.282;2023-06-14T06:23:00;18.30;1.00
3794;DHT22;1912;51.358;12.282;2023-06-14T06:25:26;17.90;1.00
3794;DHT22;1912;51.358;12.282;2023-06-14T06:27:53;18.30;1.00
3794;DHT22;1912;51.358;12.282;2023-06-14T06:30:19;18.40;1.00
3794;DHT22;1912;51.358;12.282;2023-06-14T06:32:46;18.70;1.00
3794;DHT22;1912;51.358;12.282;2023-06-14T06:35:11;18.70;1.00
3794;DHT22;1912;51.358;12.282;2023-06-14T06:37:41;19.20;1.00
3794;DHT22;1912;51.358;12.282;2023-06-14T06:40:08;19.70;1.00
3794;DHT22;1912;51.358;12.282;2023-06-14T06:42:35;20.00;1.00
3794;DHT22;1912;51.358;12.282;2023-06-14T06:45:00;19.40;1.00
3794;DHT22;1912;51.358;12.282;2023-06-14T06:47:26;19.50;1.00
3794;DHT22;1912;51.358;12.282;2023-06-14T06:49:52;19.80;1.00
3794;DHT22;1912;51.358;12.282;2023-06-14T06:52:18;19.80;1.00
3794;DHT22;1912;51.358;12.282;2023-06-14T06:54:43;20.20;1.00
3794;DHT22;1912;51.358;12.282;2023-06-14T06:57:09;20.40;1.00
3794;DHT22;1912;51.358;12.282;2023-06-14T06:59:36;20.20;1.00
3794;DHT22;1912;51.358;12.282;2023-06-14T07:02:02;20.30;1.00
3794;DHT22;1912;51.358;12.282;2023-06-14T07:04:27;20.40;1.00
3794;DHT22;1912;51.358;12.282;2023-06-14T07:06:53;20.30;1.00
3794;DHT22;1912;51.358;12.282;2023-06-14T07:09:19;19.80;1.00
3794;DHT22;1912;51.358;12.282;2023-06-14T07:11:45;19.90;1.00
3794;DHT22;1912;51.358;12.282;2023-06-14T07:14:11;20.10;1.00
3794;DHT22;1912;51.358;12.282;2023-06-14T07:16:37;20.50;1.00
3794;DHT22;1912;51.358;12.282;2023-06-14T07:19:03;20.30;1.00
3794;DHT22;1912;51.358;12.282;2023-06-14T07:21:29;20.50;1.00
3794;DHT22;1912;51.358;12.282;2023-06-14T07:23:55;21.00;1.00
3794;DHT22;1912;51.358;12.282;2023-06-14T07:26:21;20.80;1.00
3794;DHT22;1912;51.358;12.282;2023-06-14T07:28:47;20.90;1.00
3794;DHT22;1912;51.358;12.282;2023-06-14T07:31:14;20.90;1.00
3794;DHT22;1912;51.358;12.282;2023-06-14T07:33:41;20.80;1.00
3794;DHT22;1912;51.358;12.282;2023-06-14T07:36:07;21.00;1.00
3794;DHT22;1912;51.358;12.282;2023-06-14T07:38:33;20.60;1.00
3794;DHT22;1912;51.358;12.282;2023-06-14T07:41:02;21.20;1.00
3794;DHT22;1912;51.358;12.282;2023-06-14T07:43:28;21.60;1.00
3794;DHT22;1912;51.358;12.282;2023-06-14T07:45:53;21.50;1.00
3794;DHT22;1912;51.358;12.282;2023-06-14T07:48:20;21.50;1.00
3794;DHT22;1912;51.358;12.282;2023-06-14T07:50:46;21.40;1.00
3794;DHT22;1912;51.358;12.282;2023-06-14T07:53:11;21.80;1.00
3794;DHT22;1912;51.358;12.282;2023-06-14T07:55:37;21.80;1.00
3794;DHT22;1912;51.358;12.282;2023-06-14T07:58:03;22.00;1.00
3794;DHT22;1912;51.358;12.282;2023-06-14T08:00:30;22.20;1.00
3794;DHT22;1912;51.358;12.282;2023-06-14T08:02:56;21.80;1.00
3794;DHT22;1912;51.358;12.282;2023-06-14T08:05:24;21.70;1.00
3794;DHT22;1912;51.358;12.282;2023-06-14T08:07:53;22.00;1.00
3794;DHT22;1912;51.358;12.282;2023-06-14T08:10:19;22.20;1.00
3794;DHT22;1912;51.358;12.282;2023-06-14T08:12:45;21.70;1.00
3794;DHT22;1912;51.358;12.282;2023-06-14T08:15:11;22.30;1.00
3794;DHT22;1912;51.358;12.282;2023-06-14T08:17:37;22.60;1.00
3794;DHT22;1912;51.358;12.282;2023-06-14T08:20:03;22.90;1.00
3794;DHT22;1912;51.358;12.282;2023-06-14T08:22:30;23.00;1.00
3794;DHT22;1912;51.358;12.282;2023-06-14T08:25:02;22.70;1.00
3794;DHT22;1912;51.358;12.282;2023-06-14T08:27:28;22.90;1.00
3794;DHT22;1912;51.358;12.282;2023-06-14T08:29:54;23.50;1.00
3794;DHT22;1912;51.358;12.282;2023-06-14T08:32:20;22.90;1.00
3794;DHT22;1912;51.358;12.282;2023-06-14T08:34:46;23.00;1.00
3794;DHT22;1912;51.358;12.282;2023-06-14T08:37:11;23.10;1.00
3794;DHT22;1912;51.358;12.282;2023-06-14T08:39:37;23.20;1.00
3794;DHT22;1912;51.358;12.282;2023-06-14T08:42:04;23.30;1.00
3794;DHT22;1912;51.358;12.282;2023-06-14T08:44:32;23.40;1.00
3794;DHT22;1912;51.358;12.282;2023-06-14T08:46:59;23.20;1.00
3794;DHT22;1912;51.358;12.282;2023-06-14T08:49:26;23.90;1.00
3794;DHT22;1912;51.358;12.282;2023-06-14T08:51:59;24.00;1.00
3794;DHT22;1912;51.358;12.282;2023-06-14T08:54:27;24.30;1.00
3794;DHT22;1912;51.358;12.282;2023-06-14T08:56:56;24.10;1.00
3794;DHT22;1912;51.358;12.282;2023-06-14T08:59:25;23.90;1.00
3794;DHT22;1912;51.358;12.282;2023-06-14T09:01:51;24.20;1.00
3794;DHT22;1912;51.358;12.282;2023-06-14T09:04:18;24.60;1.00
3794;DHT22;1912;51.358;12.282;2023-06-14T09:06:45;24.10;1.00
3794;DHT22;1912;51.358;12.282;2023-06-14T09:09:11;24.10;1.00
3794;DHT22;1912;51.358;12.282;2023-06-14T09:11:37;24.20;1.00
3794;DHT22;1912;51.358;12.282;2023-06-14T09:14:03;23.60;1.00
3794;DHT22;1912;51.358;12.282;2023-06-14T09:16:32;24.50;1.00
3794;DHT22;1912;51.358;12.282;2023-06-14T09:18:58;25.20;1.00
3794;DHT22;1912;51.358;12.282;2023-06-14T09:21:24;25.10;1.00
3794;DHT22;1912;51.358;12.282;2023-06-14T09:23:50;24.70;1.00
3794;DHT22;1912;51.358;12.282;2023-06-14T09:26:17;24.50;1.00
3794;DHT22;1912;51.358;12.282;2023-06-14T09:28:46;24.30;1.00
3794;DHT22;1912;51.358;12.282;2023-06-14T09:31:14;24.60;1.00
3794;DHT22;1912;51.358;12.282;2023-06-14T09:33:44;24.70;1.00
3794;DHT22;1912;51.358;12.282;2023-06-14T09:36:24;24.40;1.00
3794;DHT22;1912;51.358;12.282;2023-06-14T09:39:02;25.10;1.00
3794;DHT22;1912;51.358;12.282;2023-06-14T09:41:36;25.50;1.00
3794;DHT22;1912;51.358;12.282;2023-06-14T09:44:04;25.10;1.00
3794;DHT22;1912;51.358;12.282;2023-06-14T09:46:34;25.20;1.00
3794;DHT22;1912;51.358;12.282;2023-06-14T09:49:01;25.40;1.00
3794;DHT22;1912;51.358;12.282;2023-06-14T09:51:28;26.10;1.00
3794;DHT22;1912;51.358;12.282;2023-06-14T09:54:02;26.00;1.00
3794;DHT22;1912;51.358;12.282;2023-06-14T09:56:32;26.60;1.00
3794;DHT22;1912;51.358;12.282;2023-06-14T09:59:04;26.90;1.00
3794;DHT22;1912;51.358;12.282;2023-06-14T10:01:31;27.10;1.00
3794;DHT22;1912;51.358;12.282;2023-06-14T10:04:05;26.70;1.00
3794;DHT22;1912;51.358;12.282;2023-06-14T10:06:32;26.70;1.00
3794;DHT22;1912;51.358;12.282;2023-06-14T10:09:03;26.80;1.00
3794;DHT22;1912;51.358;12.282;2023-06-14T10:11:31;26.90;1.00
3794;DHT22;1912;51.358;12.282;2023-06-14T10:13:58;26.60;1.00
3794;DHT22;1912;51.358;12.282;2023-06-14T10:16:37;26.40;1.00
3794;DHT22;1912;51.358;12.282;2023-06-14T10:19:13;26.70;1.00
3794;DHT22;1912;51.358;12.282;2023-06-14T10:24:44;26.80;1.00
3794;DHT22;1912;51.358;12.282;2023-06-14T10:27:11;26.20;1.00
3794;DHT22;1912;51.358;12.282;2023-06-14T10:32:21;25.40;1.00
3794;DHT22;1912;51.358;12.282;2023-06-14T10:35:00;25.80;1.00
3794;DHT22;1912;51.358;12.282;2023-06-14T10:37:27;25.60;1.00
3794;DHT22;1912;51.358;12.282;2023-06-14T10:39:53;25.50;1.00
3794;DHT22;1912;51.358;12.282;2023-06-14T10:42:19;25.60;1.00
3794;DHT22;1912;51.358;12.282;2023-06-14T10:44:52;25.80;1.00
3794;DHT22;1912;51.358;12.282;2023-06-14T10:47:24;26.50;1.00
3794;DHT22;1912;51.358;12.282;2023-06-14T10:50:03;26.70;1.00
3794;DHT22;1912;51.358;12.282;2023-06-14T10:52:33;27.00;1.00
3794;DHT22;1912;51.358;12.282;2023-06-14T10:55:07;27.10;1.00
3794;DHT22;1912;51.358;12.282;2023-06-14T10:57:48;27.50;1.00
3794;DHT22;1912;51.358;12.282;2023-06-14T11:00:21;27.90;1.00
3794;DHT22;1912;51.358;12.282;2023-06-14T11:11:32;27.70;1.00
3794;DHT22;1912;51.358;12.282;2023-06-14T11:14:02;27.80;1.00
3794;DHT22;1912;51.358;12.282;2023-06-14T11:16:28;28.00;1.00
3794;DHT22;1912;51.358;12.282;2023-06-14T11:18:54;27.90;1.00
3794;DHT22;1912;51.358;12.282;2023-06-14T11:21:20;28.30;1.00
3794;DHT22;1912;51.358;12.282;2023-06-14T11:23:52;28.70;1.00
3794;DHT22;1912;51.358;12.282;2023-06-14T11:26:27;29.10;1.00
3794;DHT22;1912;51.358;12.282;2023-06-14T11:28:57;29.20;1.00
3794;DHT22;1912;51.358;12.282;2023-06-14T11:31:25;29.10;1.00
3794;DHT22;1912;51.358;12.282;2023-06-14T11:33:54;27.40;1.00
3794;DHT22;1912;51.358;12.282;2023-06-14T11:36:21;26.40;1.00
3794;DHT22;1912;51.358;12.282;2023-06-14T11:38:46;25.80;1.00
3794;DHT22;1912;51.358;12.282;2023-06-14T11:41:12;25.50;1.00
3794;DHT22;1912;51.358;12.282;2023-06-14T11:43:39;26.10;1.00
3794;DHT22;1912;51.358;12.282;2023-06-14T11:46:12;27.30;1.00
3794;DHT22;1912;51.358;12.282;2023-06-14T11:48:42;27.80;1.00
3794;DHT22;1912;51.358;12.282;2023-06-14T11:51:08;28.10;1.00
3794;DHT22;1912;51.358;12.282;2023-06-14T11:53:34;28.60;1.00
3794;DHT22;1912;51.358;12.282;2023-06-14T11:56:00;28.50;1.00
3794;DHT22;1912;51.358;12.282;2023-06-14T11:58:26;28.50;1.00
3794;DHT22;1912;51.358;12.282;2023-06-14T12:00:53;29.00;1.00
3794;DHT22;1912;51.358;12.282;2023-06-14T12:03:23;28.80;1.00
3794;DHT22;1912;51.358;12.282;2023-06-14T12:06:01;28.30;1.00
3794;DHT22;1912;51.358;12.282;2023-06-14T12:08:38;27.20;1.00
3794;DHT22;1912;51.358;12.282;2023-06-14T12:11:15;26.90;1.00
3794;DHT22;1912;51.358;12.282;2023-06-14T12:13:42;26.40;1.00
3794;DHT22;1912;51.358;12.282;2023-06-14T12:16:09;26.50;1.00
3794;DHT22;1912;51.358;12.282;2023-06-14T12:18:37;26.10;1.00
3794;DHT22;1912;51.358;12.282;2023-06-14T12:21:08;25.80;1.00
3794;DHT22;1912;51.358;12.282;2023-06-14T12:23:48;25.40;1.00
3794;DHT22;1912;51.358;12.282;2023-06-14T12:26:16;25.30;1.00
3794;DHT22;1912;51.358;12.282;2023-06-14T12:28:44;25.10;1.00
3794;DHT22;1912;51.358;12.282;2023-06-14T12:31:12;25.50;1.00
3794;DHT22;1912;51.358;12.282;2023-06-14T12:33:39;25.30;1.00
3794;DHT22;1912;51.358;12.282;2023-06-14T12:36:07;25.00;1.00
3794;DHT22;1912;51.358;12.282;2023-06-14T12:38:33;25.10;1.00
3794;DHT22;1912;51.358;12.282;2023-06-14T12:41:01;24.90;1.00
3794;DHT22;1912;51.358;12.282;2023-06-14T12:43:26;24.70;1.00
3794;DHT22;1912;51.358;12.282;2023-06-14T12:45:53;24.70;1.00
3794;DHT22;1912;51.358;12.282;2023-06-14T12:48:19;24.70;1.00
3794;DHT22;1912;51.358;12.282;2023-06-14T12:50:45;24.60;1.00
3794;DHT22;1912;51.358;12.282;2023-06-14T12:53:11;24.80;1.00
3794;DHT22;1912;51.358;12.282;2023-06-14T12:55:37;25.00;1.00
3794;DHT22;1912;51.358;12.282;2023-06-14T12:58:03;24.80;1.00
3794;DHT22;1912;51.358;12.282;2023-06-14T13:00:28;24.40;1.00
3794;DHT22;1912;51.358;12.282;2023-06-14T13:02:57;24.10;1.00
3794;DHT22;1912;51.358;12.282;2023-06-14T13:05:23;24.00;1.00
3794;DHT22;1912;51.358;12.282;2023-06-14T13:07:50;23.80;1.00
3794;DHT22;1912;51.358;12.282;2023-06-14T13:10:16;23.70;1.00
3794;DHT22;1912;51.358;12.282;2023-06-14T13:12:42;23.40;1.00
3794;DHT22;1912;51.358;12.282;2023-06-14T13:15:08;23.30;1.00
3794;DHT22;1912;51.358;12.282;2023-06-14T13:17:35;23.50;1.00
3794;DHT22;1912;51.358;12.282;2023-06-14T13:20:05;23.50;1.00
3794;DHT22;1912;51.358;12.282;2023-06-14T13:22:32;23.70;1.00
3794;DHT22;1912;51.358;12.282;2023-06-14T13:24:58;23.50;1.00
3794;DHT22;1912;51.358;12.282;2023-06-14T13:27:23;23.70;1.00
3794;DHT22;1912;51.358;12.282;2023-06-14T13:29:50;23.60;1.00
3794;DHT22;1912;51.358;12.282;2023-06-14T13:32:15;23.80;1.00
3794;DHT22;1912;51.358;12.282;2023-06-14T13:34:41;24.00;1.00
3794;DHT22;1912;51.358;12.282;2023-06-14T13:37:07;23.50;1.00
3794;DHT22;1912;51.358;12.282;2023-06-14T13:39:32;23.50;1.00
3794;DHT22;1912;51.358;12.282;2023-06-14T13:41:58;23.20;1.00
3794;DHT22;1912;51.358;12.282;2023-06-14T13:44:23;23.10;1.00
3794;DHT22;1912;51.358;12.282;2023-06-14T13:46:50;23.30;1.00
3794;DHT22;1912;51.358;12.282;2023-06-14T13:49:17;23.40;1.00
3794;DHT22;1912;51.358;12.282;2023-06-14T13:51:42;23.50;1.00
3794;DHT22;1912;51.358;12.282;2023-06-14T13:54:08;23.90;1.00
3794;DHT22;1912;51.358;12.282;2023-06-14T13:56:34;24.00;1.00
3794;DHT22;1912;51.358;12.282;2023-06-14T13:58:59;23.70;1.00
3794;DHT22;1912;51.358;12.282;2023-06-14T14:01:25;23.40;1.00
3794;DHT22;1912;51.358;12.282;2023-06-14T14:03:54;23.40;1.00
3794;DHT22;1912;51.358;12.282;2023-06-14T14:06:19;23.50;1.00
3794;DHT22;1912;51.358;12.282;2023-06-14T14:08:45;23.70;1.00
3794;DHT22;1912;51.358;12.282;2023-06-14T14:11:11;23.50;1.00
3794;DHT22;1912;51.358;12.282;2023-06-14T14:13:38;23.60;1.00
3794;DHT22;1912;51.358;12.282;2023-06-14T14:16:04;23.90;1.00
3794;DHT22;1912;51.358;12.282;2023-06-14T14:18:30;23.90;1.00
3794;DHT22;1912;51.358;12.282;2023-06-14T14:20:57;23.80;1.00
3794;DHT22;1912;51.358;12.282;2023-06-14T14:23:23;23.80;1.00
3794;DHT22;1912;51.358;12.282;2023-06-14T14:25:49;23.80;1.00
3794;DHT22;1912;51.358;12.282;2023-06-14T14:28:15;23.90;1.00
3794;DHT22;1912;51.358;12.282;2023-06-14T14:30:41;23.70;1.00
3794;DHT22;1912;51.358;12.282;2023-06-14T14:33:07;23.70;1.00
3794;DHT22;1912;51.358;12.282;2023-06-14T14:35:33;23.80;1.00
3794;DHT22;1912;51.358;12.282;2023-06-14T14:37:59;24.00;1.00
3794;DHT22;1912;51.358;12.282;2023-06-14T14:40:25;24.00;1.00
3794;DHT22;1912;51.358;12.282;2023-06-14T14:42:50;24.30;1.00
3794;DHT22;1912;51.358;12.282;2023-06-14T14:45:16;24.20;1.00
3794;DHT22;1912;51.358;12.282;2023-06-14T14:47:42;24.00;1.00
3794;DHT22;1912;51.358;12.282;2023-06-14T14:50:08;24.00;1.00
3794;DHT22;1912;51.358;12.282;2023-06-14T14:52:35;24.00;1.00
3794;DHT22;1912;51.358;12.282;2023-06-14T14:55:00;24.40;1.00
3794;DHT22;1912;51.358;12.282;2023-06-14T14:57:26;25.00;1.00
3794;DHT22;1912;51.358;12.282;2023-06-14T14:59:52;25.70;1.00
3794;DHT22;1912;51.358;12.282;2023-06-14T15:02:18;25.60;1.00
3794;DHT22;1912;51.358;12.282;2023-06-14T15:04:45;24.80;1.00
3794;DHT22;1912;51.358;12.282;2023-06-14T15:07:11;24.40;1.00
3794;DHT22;1912;51.358;12.282;2023-06-14T15:09:38;24.50;1.00
3794;DHT22;1912;51.358;12.282;2023-06-14T15:12:04;24.40;1.00
3794;DHT22;1912;51.358;12.282;2023-06-14T15:14:30;24.30;1.00
3794;DHT22;1912;51.358;12.282;2023-06-14T15:16:56;24.40;1.00
3794;DHT22;1912;51.358;12.282;2023-06-14T15:19:23;24.80;1.00
3794;DHT22;1912;51.358;12.282;2023-06-14T15:21:49;24.70;1.00
3794;DHT22;1912;51.358;12.282;2023-06-14T15:24:14;24.50;1.00
3794;DHT22;1912;51.358;12.282;2023-06-14T15:26:40;24.80;1.00
3794;DHT22;1912;51.358;12.282;2023-06-14T15:29:06;25.20;1.00
3794;DHT22;1912;51.358;12.282;2023-06-14T15:31:31;25.20;1.00
3794;DHT22;1912;51.358;12.282;2023-06-14T15:33:57;25.60;1.00
3794;DHT22;1912;51.358;12.282;2023-06-14T15:36:24;26.20;1.00
3794;DHT22;1912;51.358;12.282;2023-06-14T15:38:50;26.20;1.00
3794;DHT22;1912;51.358;12.282;2023-06-14T15:41:15;26.20;1.00
3794;DHT22;1912;51.358;12.282;2023-06-14T15:43:41;26.40;1.00
3794;DHT22;1912;51.358;12.282;2023-06-14T15:46:07;26.10;1.00
3794;DHT22;1912;51.358;12.282;2023-06-14T15:48:32;25.90;1.00
3794;DHT22;1912;51.358;12.282;2023-06-14T15:50:58;25.60;1.00
3794;DHT22;1912;51.358;12.282;2023-06-14T15:53:24;25.20;1.00
3794;DHT22;1912;51.358;12.282;2023-06-14T15:55:49;25.10;1.00
3794;DHT22;1912;51.358;12.282;2023-06-14T15:58:15;25.00;1.00
3794;DHT22;1912;51.358;12.282;2023-06-14T16:00:41;25.10;1.00
3794;DHT22;1912;51.358;12.282;2023-06-14T16:03:06;24.90;1.00
3794;DHT22;1912;51.358;12.282;2023-06-14T16:05:32;24.80;1.00
3794;DHT22;1912;51.358;12.282;2023-06-14T16:07:57;24.60;1.00
3794;DHT22;1912;51.358;12.282;2023-06-14T16:10:23;24.40;1.00
3794;DHT22;1912;51.358;12.282;2023-06-14T16:12:49;24.40;1.00
3794;DHT22;1912;51.358;12.282;2023-06-14T16:15:15;24.30;1.00
3794;DHT22;1912;51.358;12.282;2023-06-14T16:17:40;24.20;1.00
3794;DHT22;1912;51.358;12.282;2023-06-14T16:20:08;24.20;1.00
3794;DHT22;1912;51.358;12.282;2023-06-14T16:22:34;23.90;1.00
3794;DHT22;1912;51.358;12.282;2023-06-14T16:24:59;23.80;1.00
3794;DHT22;1912;51.358;12.282;2023-06-14T16:27:25;23.60;1.00
3794;DHT22;1912;51.358;12.282;2023-06-14T16:29:51;23.70;1.00
3794;DHT22;1912;51.358;12.282;2023-06-14T16:32:16;23.80;1.00
3794;DHT22;1912;51.358;12.282;2023-06-14T16:34:42;24.30;1.00
3794;DHT22;1912;51.358;12.282;2023-06-14T16:37:08;24.50;1.00
3794;DHT22;1912;51.358;12.282;2023-06-14T16:39:33;24.60;1.00
3794;DHT22;1912;51.358;12.282;2023-06-14T16:41:59;24.90;1.00
3794;DHT22;1912;51.358;12.282;2023-06-14T16:44:25;25.10;1.00
3794;DHT22;1912;51.358;12.282;2023-06-14T16:46:50;25.00;1.00
3794;DHT22;1912;51.358;12.282;2023-06-14T16:49:17;24.80;1.00
3794;DHT22;1912;51.358;12.282;2023-06-14T16:51:43;24.30;1.00
3794;DHT22;1912;51.358;12.282;2023-06-14T16:54:08;24.20;1.00
3794;DHT22;1912;51.358;12.282;2023-06-14T16:56:34;24.20;1.00
3794;DHT22;1912;51.358;12.282;2023-06-14T16:59:00;24.00;1.00
3794;DHT22;1912;51.358;12.282;2023-06-14T17:01:26;24.10;1.00
3794;DHT22;1912;51.358;12.282;2023-06-14T17:03:52;24.10;1.00
3794;DHT22;1912;51.358;12.282;2023-06-14T17:06:18;24.10;1.00
3794;DHT22;1912;51.358;12.282;2023-06-14T17:08:46;24.00;1.00
3794;DHT22;1912;51.358;12.282;2023-06-14T17:11:12;24.00;1.00
3794;DHT22;1912;51.358;12.282;2023-06-14T17:13:38;23.90;1.00
3794;DHT22;1912;51.358;12.282;2023-06-14T17:16:04;23.60;1.00
3794;DHT22;1912;51.358;12.282;2023-06-14T17:18:33;23.40;1.00
3794;DHT22;1912;51.358;12.282;2023-06-14T17:21:00;23.40;1.00
3794;DHT22;1912;51.358;12.282;2023-06-14T17:23:26;23.30;1.00
3794;DHT22;1912;51.358;12.282;2023-06-14T17:25:51;23.10;1.00
3794;DHT22;1912;51.358;12.282;2023-06-14T17:28:17;23.20;1.00
3794;DHT22;1912;51.358;12.282;2023-06-14T17:30:43;23.00;1.00
3794;DHT22;1912;51.358;12.282;2023-06-14T17:33:08;23.00;1.00
3794;DHT22;1912;51.358;12.282;2023-06-14T17:35:35;23.00;1.00
3794;DHT22;1912;51.358;12.282;2023-06-14T17:38:02;23.10;1.00
3794;DHT22;1912;51.358;12.282;2023-06-14T17:40:28;23.20;1.00
3794;DHT22;1912;51.358;12.282;2023-06-14T17:42:54;23.20;1.00
3794;DHT22;1912;51.358;12.282;2023-06-14T17:45:20;23.20;1.00
3794;DHT22;1912;51.358;12.282;2023-06-14T17:47:46;23.10;1.00
3794;DHT22;1912;51.358;12.282;2023-06-14T17:50:12;23.10;1.00
3794;DHT22;1912;51.358;12.282;2023-06-14T17:52:37;22.80;1.00
3794;DHT22;1912;51.358;12.282;2023-06-14T17:55:03;22.80;1.00
3794;DHT22;1912;51.358;12.282;2023-06-14T17:57:29;22.80;1.00
3794;DHT22;1912;51.358;12.282;2023-06-14T17:59:55;22.70;1.00
3794;DHT22;1912;51.358;12.282;2023-06-14T18:02:21;22.70;1.00
3794;DHT22;1912;51.358;12.282;2023-06-14T18:04:47;22.70;1.00
3794;DHT22;1912;51.358;12.282;2023-06-14T18:07:13;22.60;1.00
3794;DHT22;1912;51.358;12.282;2023-06-14T18:09:39;22.50;1.00
3794;DHT22;1912;51.358;12.282;2023-06-14T18:12:05;22.50;1.00
3794;DHT22;1912;51.358;12.282;2023-06-14T18:14:32;22.30;1.00
3794;DHT22;1912;51.358;12.282;2023-06-14T18:16:58;22.40;1.00
3794;DHT22;1912;51.358;12.282;2023-06-14T18:19:24;22.30;1.00
3794;DHT22;1912;51.358;12.282;2023-06-14T18:21:54;22.30;1.00
3794;DHT22;1912;51.358;12.282;2023-06-14T18:24:21;22.20;1.00
3794;DHT22;1912;51.358;12.282;2023-06-14T18:26:46;22.30;1.00
3794;DHT22;1912;51.358;12.282;2023-06-14T18:29:13;22.20;1.00
3794;DHT22;1912;51.358;12.282;2023-06-14T18:31:40;22.20;1.00
3794;DHT22;1912;51.358;12.282;2023-06-14T18:34:07;22.20;1.00
3794;DHT22;1912;51.358;12.282;2023-06-14T18:36:36;22.20;1.00
3794;DHT22;1912;51.358;12.282;2023-06-14T18:39:04;22.30;1.00
3794;DHT22;1912;51.358;12.282;2023-06-14T18:41:31;22.20;1.00
3794;DHT22;1912;51.358;12.282;2023-06-14T18:43:56;22.10;1.00
3794;DHT22;1912;51.358;12.282;2023-06-14T18:46:22;22.20;1.00
3794;DHT22;1912;51.358;12.282;2023-06-14T18:48:48;22.20;1.00
3794;DHT22;1912;51.358;12.282;2023-06-14T18:51:14;22.10;1.00
3794;DHT22;1912;51.358;12.282;2023-06-14T18:53:40;21.90;1.00
3794;DHT22;1912;51.358;12.282;2023-06-14T18:56:06;21.80;1.00
3794;DHT22;1912;51.358;12.282;2023-06-14T18:58:32;21.80;1.00
3794;DHT22;1912;51.358;12.282;2023-06-14T19:00:58;21.70;1.00
3794;DHT22;1912;51.358;12.282;2023-06-14T19:03:23;21.70;1.00
3794;DHT22;1912;51.358;12.282;2023-06-14T19:05:49;21.60;1.00
3794;DHT22;1912;51.358;12.282;2023-06-14T19:08:16;21.60;1.00
3794;DHT22;1912;51.358;12.282;2023-06-14T19:10:42;21.50;1.00
3794;DHT22;1912;51.358;12.282;2023-06-14T19:13:07;21.40;1.00
3794;DHT22;1912;51.358;12.282;2023-06-14T19:15:36;21.40;1.00
3794;DHT22;1912;51.358;12.282;2023-06-14T19:18:03;21.30;1.00
3794;DHT22;1912;51.358;12.282;2023-06-14T19:20:31;21.20;1.00
3794;DHT22;1912;51.358;12.282;2023-06-14T19:22:57;21.10;1.00
3794;DHT22;1912;51.358;12.282;2023-06-14T19:25:23;21.10;1.00
3794;DHT22;1912;51.358;12.282;2023-06-14T19:27:50;21.10;1.00
3794;DHT22;1912;51.358;12.282;2023-06-14T19:30:16;20.90;1.00
3794;DHT22;1912;51.358;12.282;2023-06-14T19:32:42;20.70;1.00
3794;DHT22;1912;51.358;12.282;2023-06-14T19:35:08;20.80;1.00
3794;DHT22;1912;51.358;12.282;2023-06-14T19:37:35;20.70;1.00
3794;DHT22;1912;51.358;12.282;2023-06-14T19:40:02;20.60;1.00
3794;DHT22;1912;51.358;12.282;2023-06-14T19:42:28;20.50;1.00
3794;DHT22;1912;51.358;12.282;2023-06-14T19:44:54;20.40;1.00
3794;DHT22;1912;51.358;12.282;2023-06-14T19:47:20;20.30;1.00
3794;DHT22;1912;51.358;12.282;2023-06-14T19:49:45;20.20;1.00
3794;DHT22;1912;51.358;12.282;2023-06-14T19:52:11;20.10;1.00
3794;DHT22;1912;51.358;12.282;2023-06-14T19:54:37;20.00;1.00
